sensor_id;sensor_type;location;lat;lon;timestamp;pressure;altitude;pressure_sealevel;temperature;humidity
48053;BME280;33824;51.600;5.718;2023-02-28T00:00:27;102939.00;;;0.45;76.33
48053;BME280;33824;51.600;5.718;2023-02-28T00:03:13;102947.97;;;0.40;76.28
48053;BME280;33824;51.600;5.718;2023-02-28T00:05:38;102941.13;;;0.36;76.07
48053;BME280;33824;51.600;5.718;2023-02-28T00:08:05;102937.78;;;0.31;76.28
48053;BME280;33824;51.600;5.718;2023-02-28T00:10:31;102939.59;;;0.30;76.27
48053;BME280;33824;51.600;5.718;2023-02-28T00:13:02;102940.53;;;0.28;76.29
48053;BME280;33824;51.600;5.718;2023-02-28T00:15:29;102945.59;;;0.34;76.96
48053;BME280;33824;51.600;5.718;2023-02-28T00:17:55;102943.75;;;0.36;76.28
48053;BME280;33824;51.600;5.718;2023-02-28T00:20:20;102940.34;;;0.34;76.62
48053;BME280;33824;51.600;5.718;2023-02-28T00:22:48;102940.38;;;0.32;76.44
48053;BME280;33824;51.600;5.718;2023-02-28T00:25:17;102930.91;;;0.28;75.96
48053;BME280;33824;51.600;5.718;2023-02-28T00:27:44;102941.34;;;0.30;76.07
48053;BME280;33824;51.600;5.718;2023-02-28T00:30:12;102927.50;;;0.26;76.05
48053;BME280;33824;51.600;5.718;2023-02-28T00:32:39;102930.13;;;0.26;76.60
48053;BME280;33824;51.600;5.718;2023-02-28T00:35:05;102936.19;;;0.27;76.67
48053;BME280;33824;51.600;5.718;2023-02-28T00:37:31;102942.31;;;0.27;76.54
48053;BME280;33824;51.600;5.718;2023-02-28T00:39:57;102933.53;;;0.28;76.42
48053;BME280;33824;51.600;5.718;2023-02-28T00:42:23;102931.88;;;0.26;76.69
48053;BME280;33824;51.600;5.718;2023-02-28T00:44:49;102934.44;;;0.27;77.01
48053;BME280;33824;51.600;5.718;2023-02-28T00:47:15;102931.03;;;0.25;76.47
48053;BME280;33824;51.600;5.718;2023-02-28T00:49:41;102933.69;;;0.24;76.52
48053;BME280;33824;51.600;5.718;2023-02-28T00:52:06;102928.53;;;0.22;76.88
48053;BME280;33824;51.600;5.718;2023-02-28T00:54:32;102929.38;;;0.23;76.28
48053;BME280;33824;51.600;5.718;2023-02-28T00:56:58;102930.34;;;0.20;76.15
48053;BME280;33824;51.600;5.718;2023-02-28T00:59:23;102934.84;;;0.17;76.35
48053;BME280;33824;51.600;5.718;2023-02-28T01:01:49;102941.84;;;0.16;76.25
48053;BME280;33824;51.600;5.718;2023-02-28T01:04:15;102939.38;;;0.12;76.31
48053;BME280;33824;51.600;5.718;2023-02-28T01:06:41;102940.44;;;0.08;75.58
48053;BME280;33824;51.600;5.718;2023-02-28T01:09:07;102948.31;;;0.08;76.07
48053;BME280;33824;51.600;5.718;2023-02-28T01:11:34;102953.63;;;0.05;76.57
48053;BME280;33824;51.600;5.718;2023-02-28T01:14:00;102955.31;;;0.07;76.52
48053;BME280;33824;51.600;5.718;2023-02-28T01:16:26;102958.88;;;0.05;76.71
48053;BME280;33824;51.600;5.718;2023-02-28T01:18:52;102952.69;;;0.07;77.04
48053;BME280;33824;51.600;5.718;2023-02-28T01:21:20;102951.88;;;0.05;76.83
48053;BME280;33824;51.600;5.718;2023-02-28T01:23:46;102954.38;;;0.08;76.43
48053;BME280;33824;51.600;5.718;2023-02-28T01:26:19;102960.72;;;0.03;76.54
48053;BME280;33824;51.600;5.718;2023-02-28T01:28:45;102953.38;;;0.12;76.07
48053;BME280;33824;51.600;5.718;2023-02-28T01:31:11;102958.34;;;0.20;76.48
48053;BME280;33824;51.600;5.718;2023-02-28T01:33:37;102951.03;;;0.28;76.59
48053;BME280;33824;51.600;5.718;2023-02-28T01:38:29;102944.66;;;0.35;76.47
48053;BME280;33824;51.600;5.718;2023-02-28T01:40:58;102949.03;;;0.34;76.30
48053;BME280;33824;51.600;5.718;2023-02-28T01:43:26;102945.59;;;0.34;76.50
48053;BME280;33824;51.600;5.718;2023-02-28T01:45:53;102943.88;;;0.33;76.19
48053;BME280;33824;51.600;5.718;2023-02-28T01:48:25;102936.88;;;0.32;76.43
48053;BME280;33824;51.600;5.718;2023-02-28T01:50:52;102928.97;;;0.33;76.40
48053;BME280;33824;51.600;5.718;2023-02-28T01:53:24;102919.34;;;0.34;76.40
48053;BME280;33824;51.600;5.718;2023-02-28T01:55:51;102928.69;;;0.18;76.75
48053;BME280;33824;51.600;5.718;2023-02-28T01:58:18;102923.91;;;0.29;76.71
48053;BME280;33824;51.600;5.718;2023-02-28T02:00:44;102927.25;;;0.32;76.79
48053;BME280;33824;51.600;5.718;2023-02-28T02:03:12;102932.50;;;0.32;76.72
48053;BME280;33824;51.600;5.718;2023-02-28T02:05:39;102932.34;;;0.37;76.94
48053;BME280;33824;51.600;5.718;2023-02-28T02:08:09;102923.59;;;0.36;76.66
48053;BME280;33824;51.600;5.718;2023-02-28T02:10:40;102921.09;;;0.33;77.10
48053;BME280;33824;51.600;5.718;2023-02-28T02:16:04;102920.44;;;0.27;77.29
48053;BME280;33824;51.600;5.718;2023-02-28T02:18:46;102925.03;;;0.22;77.55
48053;BME280;33824;51.600;5.718;2023-02-28T02:24:05;102923.28;;;0.22;77.46
48053;BME280;33824;51.600;5.718;2023-02-28T02:27:08;102915.34;;;0.24;77.75
48053;BME280;33824;51.600;5.718;2023-02-28T02:35:11;102915.97;;;0.30;78.52
48053;BME280;33824;51.600;5.718;2023-02-28T02:38:00;102913.94;;;0.15;78.91
48053;BME280;33824;51.600;5.718;2023-02-28T02:40:38;102921.44;;;0.24;78.76
48053;BME280;33824;51.600;5.718;2023-02-28T02:43:13;102914.25;;;0.29;78.80
48053;BME280;33824;51.600;5.718;2023-02-28T02:45:47;102923.00;;;0.30;78.88
48053;BME280;33824;51.600;5.718;2023-02-28T02:48:17;102918.34;;;0.36;78.63
48053;BME280;33824;51.600;5.718;2023-02-28T02:50:56;102918.34;;;0.36;78.69
48053;BME280;33824;51.600;5.718;2023-02-28T02:53:27;102912.78;;;0.45;78.19
48053;BME280;33824;51.600;5.718;2023-02-28T02:55:55;102922.28;;;0.48;78.68
48053;BME280;33824;51.600;5.718;2023-02-28T02:58:28;102918.75;;;0.49;78.32
48053;BME280;33824;51.600;5.718;2023-02-28T03:00:58;102915.16;;;0.52;78.38
48053;BME280;33824;51.600;5.718;2023-02-28T03:03:26;102911.53;;;0.54;78.21
48053;BME280;33824;51.600;5.718;2023-02-28T03:05:57;102923.72;;;0.57;77.96
48053;BME280;33824;51.600;5.718;2023-02-28T03:08:23;102919.19;;;0.60;77.69
48053;BME280;33824;51.600;5.718;2023-02-28T03:10:51;102914.81;;;0.61;78.09
48053;BME280;33824;51.600;5.718;2023-02-28T03:13:42;102911.41;;;0.57;78.08
48053;BME280;33824;51.600;5.718;2023-02-28T03:24:34;102913.94;;;0.60;77.72
48053;BME280;33824;51.600;5.718;2023-02-28T03:27:11;102916.44;;;0.63;77.97
48053;BME280;33824;51.600;5.718;2023-02-28T03:29:46;102917.16;;;0.67;78.06
48053;BME280;33824;51.600;5.718;2023-02-28T03:32:19;102916.19;;;0.69;78.02
48053;BME280;33824;51.600;5.718;2023-02-28T03:37:24;102916.75;;;0.77;78.35
48053;BME280;33824;51.600;5.718;2023-02-28T03:40:01;102910.72;;;0.75;78.24
48053;BME280;33824;51.600;5.718;2023-02-28T03:42:34;102919.16;;;0.83;77.78
48053;BME280;33824;51.600;5.718;2023-02-28T03:45:18;102918.50;;;0.77;78.31
48053;BME280;33824;51.600;5.718;2023-02-28T03:47:58;102927.94;;;0.82;77.91
48053;BME280;33824;51.600;5.718;2023-02-28T03:50:35;102919.88;;;0.87;78.36
48053;BME280;33824;51.600;5.718;2023-02-28T03:53:11;102923.16;;;0.92;77.68
48053;BME280;33824;51.600;5.718;2023-02-28T03:55:48;102925.69;;;0.95;78.10
48053;BME280;33824;51.600;5.718;2023-02-28T03:58:22;102917.53;;;1.01;78.19
48053;BME280;33824;51.600;5.718;2023-02-28T04:00:59;102915.03;;;0.98;78.21
48053;BME280;33824;51.600;5.718;2023-02-28T04:03:37;102901.66;;;1.04;78.06
48053;BME280;33824;51.600;5.718;2023-02-28T04:06:04;102903.09;;;1.11;78.17
48053;BME280;33824;51.600;5.718;2023-02-28T04:08:30;102898.56;;;1.15;77.89
48053;BME280;33824;51.600;5.718;2023-02-28T04:11:01;102910.84;;;1.14;77.47
48053;BME280;33824;51.600;5.718;2023-02-28T04:13:28;102915.22;;;0.93;78.05
48053;BME280;33824;51.600;5.718;2023-02-28T04:15:54;102911.06;;;1.10;78.37
48053;BME280;33824;51.600;5.718;2023-02-28T04:18:22;102910.75;;;1.17;78.03
48053;BME280;33824;51.600;5.718;2023-02-28T04:20:48;102913.97;;;1.24;77.46
48053;BME280;33824;51.600;5.718;2023-02-28T04:23:13;102909.50;;;1.26;77.57
48053;BME280;33824;51.600;5.718;2023-02-28T04:25:39;102918.00;;;1.32;77.64
48053;BME280;33824;51.600;5.718;2023-02-28T04:28:05;102917.81;;;1.37;77.13
48053;BME280;33824;51.600;5.718;2023-02-28T04:30:31;102911.47;;;1.41;77.30
48053;BME280;33824;51.600;5.718;2023-02-28T04:32:58;102916.53;;;1.45;77.47
48053;BME280;33824;51.600;5.718;2023-02-28T04:35:24;102915.63;;;1.47;76.69
48053;BME280;33824;51.600;5.718;2023-02-28T04:37:50;102909.38;;;1.49;76.86
48053;BME280;33824;51.600;5.718;2023-02-28T04:40:16;102908.47;;;1.50;77.06
48053;BME280;33824;51.600;5.718;2023-02-28T04:42:41;102919.78;;;1.52;76.95
48053;BME280;33824;51.600;5.718;2023-02-28T04:45:07;102915.44;;;1.51;76.87
48053;BME280;33824;51.600;5.718;2023-02-28T04:47:36;102910.94;;;1.53;76.90
48053;BME280;33824;51.600;5.718;2023-02-28T04:50:02;102910.09;;;1.53;76.93
48053;BME280;33824;51.600;5.718;2023-02-28T04:52:28;102914.72;;;1.48;76.97
48053;BME280;33824;51.600;5.718;2023-02-28T04:54:54;102915.34;;;1.53;76.61
48053;BME280;33824;51.600;5.718;2023-02-28T04:57:20;102914.53;;;1.52;76.70
48053;BME280;33824;51.600;5.718;2023-02-28T04:59:45;102917.94;;;1.54;76.70
48053;BME280;33824;51.600;5.718;2023-02-28T05:02:11;102915.31;;;1.54;76.75
48053;BME280;33824;51.600;5.718;2023-02-28T05:04:36;102921.41;;;1.55;76.76
48053;BME280;33824;51.600;5.718;2023-02-28T05:07:02;102921.34;;;1.56;76.20
48053;BME280;33824;51.600;5.718;2023-02-28T05:09:29;102924.78;;;1.58;76.06
48053;BME280;33824;51.600;5.718;2023-02-28T05:11:55;102930.94;;;1.57;76.25
48053;BME280;33824;51.600;5.718;2023-02-28T05:14:21;102929.13;;;1.59;76.25
48053;BME280;33824;51.600;5.718;2023-02-28T05:16:46;102933.66;;;1.56;76.00
48053;BME280;33824;51.600;5.718;2023-02-28T05:19:12;102930.94;;;1.57;75.98
48053;BME280;33824;51.600;5.718;2023-02-28T05:21:39;102931.66;;;1.61;76.25
48053;BME280;33824;51.600;5.718;2023-02-28T05:24:09;102932.53;;;1.61;75.79
48053;BME280;33824;51.600;5.718;2023-02-28T05:26:36;102932.38;;;1.64;75.77
48053;BME280;33824;51.600;5.718;2023-02-28T05:29:03;102927.22;;;1.63;75.55
48053;BME280;33824;51.600;5.718;2023-02-28T05:31:28;102934.16;;;1.64;75.54
48053;BME280;33824;51.600;5.718;2023-02-28T05:33:54;102936.72;;;1.65;75.38
48053;BME280;33824;51.600;5.718;2023-02-28T05:36:20;102937.59;;;1.66;76.01
48053;BME280;33824;51.600;5.718;2023-02-28T05:38:47;102939.22;;;1.68;75.77
48053;BME280;33824;51.600;5.718;2023-02-28T05:41:13;102945.28;;;1.70;75.60
48053;BME280;33824;51.600;5.718;2023-02-28T05:43:39;102937.41;;;1.70;75.56
48053;BME280;33824;51.600;5.718;2023-02-28T05:46:06;102940.94;;;1.69;75.79
48053;BME280;33824;51.600;5.718;2023-02-28T05:48:33;102947.09;;;1.68;75.69
48053;BME280;33824;51.600;5.718;2023-02-28T05:50:58;102946.25;;;1.68;75.31
48053;BME280;33824;51.600;5.718;2023-02-28T05:53:24;102947.19;;;1.67;75.44
48053;BME280;33824;51.600;5.718;2023-02-28T05:55:50;102944.66;;;1.64;75.32
48053;BME280;33824;51.600;5.718;2023-02-28T05:58:15;102946.38;;;1.65;75.43
48053;BME280;33824;51.600;5.718;2023-02-28T06:00:40;102949.09;;;1.63;75.40
48053;BME280;33824;51.600;5.718;2023-02-28T06:03:06;102945.53;;;1.64;75.36
48053;BME280;33824;51.600;5.718;2023-02-28T06:05:32;102949.16;;;1.62;75.63
48053;BME280;33824;51.600;5.718;2023-02-28T06:07:58;102942.13;;;1.62;75.66
48053;BME280;33824;51.600;5.718;2023-02-28T06:10:23;102940.34;;;1.63;75.65
48053;BME280;33824;51.600;5.718;2023-02-28T06:12:49;102951.78;;;1.62;75.75
48053;BME280;33824;51.600;5.718;2023-02-28T06:15:15;102960.66;;;1.59;75.72
48053;BME280;33824;51.600;5.718;2023-02-28T06:17:43;102961.56;;;1.58;75.78
48053;BME280;33824;51.600;5.718;2023-02-28T06:20:10;102961.63;;;1.57;75.85
48053;BME280;33824;51.600;5.718;2023-02-28T06:22:38;102964.22;;;1.58;75.88
48053;BME280;33824;51.600;5.718;2023-02-28T06:25:05;102965.94;;;1.59;75.81
48053;BME280;33824;51.600;5.718;2023-02-28T06:27:33;102970.31;;;1.59;76.07
48053;BME280;33824;51.600;5.718;2023-02-28T06:29:58;102975.50;;;1.60;75.79
48053;BME280;33824;51.600;5.718;2023-02-28T06:32:24;102966.84;;;1.58;76.13
48053;BME280;33824;51.600;5.718;2023-02-28T06:34:50;102969.47;;;1.58;76.39
48053;BME280;33824;51.600;5.718;2023-02-28T06:37:16;102966.78;;;1.60;76.40
48053;BME280;33824;51.600;5.718;2023-02-28T06:39:42;102970.31;;;1.59;76.20
48053;BME280;33824;51.600;5.718;2023-02-28T06:42:08;102967.75;;;1.57;76.11
48053;BME280;33824;51.600;5.718;2023-02-28T06:44:33;102962.81;;;1.50;76.31
48053;BME280;33824;51.600;5.718;2023-02-28T06:47:04;102957.97;;;1.40;76.06
48053;BME280;33824;51.600;5.718;2023-02-28T06:49:31;102967.34;;;1.46;75.88
48053;BME280;33824;51.600;5.718;2023-02-28T06:51:57;102971.09;;;1.40;75.59
48053;BME280;33824;51.600;5.718;2023-02-28T06:54:23;102966.66;;;1.41;75.89
48053;BME280;33824;51.600;5.718;2023-02-28T06:56:49;102973.59;;;1.43;76.02
48053;BME280;33824;51.600;5.718;2023-02-28T06:59:16;102980.69;;;1.41;75.71
48053;BME280;33824;51.600;5.718;2023-02-28T07:01:42;102980.34;;;1.49;75.78
48053;BME280;33824;51.600;5.718;2023-02-28T07:04:07;102986.16;;;1.57;75.69
48053;BME280;33824;51.600;5.718;2023-02-28T07:06:33;102989.13;;;1.70;75.67
48053;BME280;33824;51.600;5.718;2023-02-28T07:08:59;102983.34;;;1.82;75.41
48053;BME280;33824;51.600;5.718;2023-02-28T07:11:26;102984.81;;;1.89;75.22
48053;BME280;33824;51.600;5.718;2023-02-28T07:13:53;102980.84;;;1.99;75.20
48053;BME280;33824;51.600;5.718;2023-02-28T07:16:19;102989.19;;;2.09;74.92
48053;BME280;33824;51.600;5.718;2023-02-28T07:18:47;102986.22;;;2.16;74.85
48053;BME280;33824;51.600;5.718;2023-02-28T07:21:13;102988.53;;;2.24;74.48
48053;BME280;33824;51.600;5.718;2023-02-28T07:23:39;102991.66;;;2.32;74.44
48053;BME280;33824;51.600;5.718;2023-02-28T07:26:06;102995.72;;;2.39;73.99
48053;BME280;33824;51.600;5.718;2023-02-28T07:28:32;102997.06;;;2.48;73.85
48053;BME280;33824;51.600;5.718;2023-02-28T07:31:03;102996.97;;;2.51;73.13
48053;BME280;33824;51.600;5.718;2023-02-28T07:33:29;103004.50;;;2.58;72.67
48053;BME280;33824;51.600;5.718;2023-02-28T07:36:00;102999.81;;;2.65;72.40
48053;BME280;33824;51.600;5.718;2023-02-28T07:38:26;103002.66;;;2.79;72.50
48053;BME280;33824;51.600;5.718;2023-02-28T07:40:52;103004.38;;;2.80;71.92
48053;BME280;33824;51.600;5.718;2023-02-28T07:43:17;103013.97;;;2.81;71.40
48053;BME280;33824;51.600;5.718;2023-02-28T07:45:43;103010.28;;;2.85;70.96
48053;BME280;33824;51.600;5.718;2023-02-28T07:48:08;103014.38;;;2.90;70.64
48053;BME280;33824;51.600;5.718;2023-02-28T07:50:35;103011.19;;;2.84;70.19
48053;BME280;33824;51.600;5.718;2023-02-28T07:53:00;103018.41;;;2.80;70.08
48053;BME280;33824;51.600;5.718;2023-02-28T07:55:26;103015.03;;;2.58;69.70
48053;BME280;33824;51.600;5.718;2023-02-28T07:57:51;103018.53;;;2.59;69.88
48053;BME280;33824;51.600;5.718;2023-02-28T08:00:17;103015.31;;;2.71;69.06
48053;BME280;33824;51.600;5.718;2023-02-28T08:02:43;103014.53;;;2.87;69.15
48053;BME280;33824;51.600;5.718;2023-02-28T08:05:09;103010.91;;;2.90;67.37
48053;BME280;33824;51.600;5.718;2023-02-28T08:07:34;103011.13;;;3.04;68.78
48053;BME280;33824;51.600;5.718;2023-02-28T08:10:00;103022.28;;;3.09;67.67
48053;BME280;33824;51.600;5.718;2023-02-28T08:12:25;103021.00;;;3.18;67.69
48053;BME280;33824;51.600;5.718;2023-02-28T08:14:51;103019.72;;;3.26;66.25
48053;BME280;33824;51.600;5.718;2023-02-28T08:17:17;103019.25;;;3.35;66.70
48053;BME280;33824;51.600;5.718;2023-02-28T08:19:45;103017.25;;;3.41;65.53
48053;BME280;33824;51.600;5.718;2023-02-28T08:22:11;103016.22;;;3.43;62.46
48053;BME280;33824;51.600;5.718;2023-02-28T08:24:36;103011.22;;;3.56;62.96
48053;BME280;33824;51.600;5.718;2023-02-28T08:27:02;103005.63;;;3.62;62.02
48053;BME280;33824;51.600;5.718;2023-02-28T08:29:28;103006.31;;;3.65;61.08
48053;BME280;33824;51.600;5.718;2023-02-28T08:31:55;103009.91;;;3.64;59.57
48053;BME280;33824;51.600;5.718;2023-02-28T08:34:21;103007.66;;;3.74;59.52
48053;BME280;33824;51.600;5.718;2023-02-28T08:36:46;103005.66;;;3.79;59.42
48053;BME280;33824;51.600;5.718;2023-02-28T08:39:12;103002.84;;;3.82;58.66
48053;BME280;33824;51.600;5.718;2023-02-28T08:41:38;103006.13;;;3.87;58.16
48053;BME280;33824;51.600;5.718;2023-02-28T08:44:03;103005.88;;;3.92;58.60
48053;BME280;33824;51.600;5.718;2023-02-28T08:46:29;103002.16;;;3.96;57.74
48053;BME280;33824;51.600;5.718;2023-02-28T08:48:56;103003.59;;;4.01;57.45
48053;BME280;33824;51.600;5.718;2023-02-28T08:51:25;103005.84;;;4.09;57.45
48053;BME280;33824;51.600;5.718;2023-02-28T08:53:53;103012.00;;;4.09;57.50
48053;BME280;33824;51.600;5.718;2023-02-28T08:56:18;103006.25;;;4.18;57.29
48053;BME280;33824;51.600;5.718;2023-02-28T08:58:46;103007.00;;;4.20;56.71
48053;BME280;33824;51.600;5.718;2023-02-28T09:01:13;103012.22;;;4.22;56.90
48053;BME280;33824;51.600;5.718;2023-02-28T09:03:39;103016.75;;;4.35;57.26
48053;BME280;33824;51.600;5.718;2023-02-28T09:06:08;103010.31;;;4.41;57.29
48053;BME280;33824;51.600;5.718;2023-02-28T09:08:34;103004.84;;;4.44;55.89
48053;BME280;33824;51.600;5.718;2023-02-28T09:11:00;103012.31;;;4.36;54.15
48053;BME280;33824;51.600;5.718;2023-02-28T09:13:26;103011.53;;;4.34;53.80
48053;BME280;33824;51.600;5.718;2023-02-28T09:16:15;103005.44;;;4.33;54.69
48053;BME280;33824;51.600;5.718;2023-02-28T09:18:42;103003.91;;;4.45;54.37
48053;BME280;33824;51.600;5.718;2023-02-28T09:21:10;103005.94;;;4.40;53.37
48053;BME280;33824;51.600;5.718;2023-02-28T09:23:38;103006.22;;;4.51;53.98
48053;BME280;33824;51.600;5.718;2023-02-28T09:26:05;103010.63;;;4.68;54.03
48053;BME280;33824;51.600;5.718;2023-02-28T09:28:31;102996.25;;;4.72;53.67
48053;BME280;33824;51.600;5.718;2023-02-28T09:30:56;103008.13;;;4.80;53.50
48053;BME280;33824;51.600;5.718;2023-02-28T09:33:24;103003.88;;;4.78;52.55
48053;BME280;33824;51.600;5.718;2023-02-28T09:35:50;103007.81;;;4.87;53.29
48053;BME280;33824;51.600;5.718;2023-02-28T09:38:17;102998.41;;;4.97;53.16
48053;BME280;33824;51.600;5.718;2023-02-28T09:40:51;103003.47;;;5.01;53.22
48053;BME280;33824;51.600;5.718;2023-02-28T09:43:21;103002.59;;;5.16;52.27
48053;BME280;33824;51.600;5.718;2023-02-28T09:45:52;102997.63;;;5.26;51.64
48053;BME280;33824;51.600;5.718;2023-02-28T09:48:28;103003.09;;;5.23;50.37
48053;BME280;33824;51.600;5.718;2023-02-28T09:51:02;102998.16;;;5.32;49.44
48053;BME280;33824;51.600;5.718;2023-02-28T09:53:33;103010.34;;;5.35;50.31
48053;BME280;33824;51.600;5.718;2023-02-28T10:02:10;102984.31;;;5.43;45.64
48053;BME280;33824;51.600;5.718;2023-02-28T10:04:46;102990.13;;;5.64;48.60
48053;BME280;33824;51.600;5.718;2023-02-28T10:10:36;102987.00;;;5.87;48.21
48053;BME280;33824;51.600;5.718;2023-02-28T10:13:11;102988.53;;;5.91;46.70
48053;BME280;33824;51.600;5.718;2023-02-28T10:15:38;102978.25;;;6.15;48.25
48053;BME280;33824;51.600;5.718;2023-02-28T10:18:10;102978.34;;;6.13;45.34
48053;BME280;33824;51.600;5.718;2023-02-28T10:20:39;102981.72;;;6.01;45.44
48053;BME280;33824;51.600;5.718;2023-02-28T10:23:27;102974.81;;;5.99;43.79
48053;BME280;33824;51.600;5.718;2023-02-28T10:26:19;102980.03;;;6.00;41.81
48053;BME280;33824;51.600;5.718;2023-02-28T10:28:45;102978.78;;;5.92;43.80
48053;BME280;33824;51.600;5.718;2023-02-28T10:31:14;102977.84;;;5.93;43.86
48053;BME280;33824;51.600;5.718;2023-02-28T10:33:42;102978.34;;;5.84;43.33
48053;BME280;33824;51.600;5.718;2023-02-28T10:36:13;102975.38;;;5.90;43.11
48053;BME280;33824;51.600;5.718;2023-02-28T10:38:39;102980.41;;;5.78;43.96
48053;BME280;33824;51.600;5.718;2023-02-28T10:41:13;102975.75;;;5.98;44.77
48053;BME280;33824;51.600;5.718;2023-02-28T10:43:40;102968.59;;;6.00;43.79
48053;BME280;33824;51.600;5.718;2023-02-28T10:48:40;102961.69;;;6.11;44.33
48053;BME280;33824;51.600;5.718;2023-02-28T10:51:10;102956.38;;;6.25;44.16
48053;BME280;33824;51.600;5.718;2023-02-28T10:59:00;102964.81;;;6.32;42.60
48053;BME280;33824;51.600;5.718;2023-02-28T11:01:45;102963.19;;;6.44;43.16
48053;BME280;33824;51.600;5.718;2023-02-28T11:07:00;102953.72;;;6.54;44.06
48053;BME280;33824;51.600;5.718;2023-02-28T11:09:38;102955.91;;;6.33;41.13
48053;BME280;33824;51.600;5.718;2023-02-28T11:12:20;102954.03;;;6.21;41.55
48053;BME280;33824;51.600;5.718;2023-02-28T11:14:49;102954.88;;;6.36;42.52
48053;BME280;33824;51.600;5.718;2023-02-28T11:17:24;102951.47;;;6.34;42.16
48053;BME280;33824;51.600;5.718;2023-02-28T11:19:53;102947.28;;;6.58;43.58
48053;BME280;33824;51.600;5.718;2023-02-28T11:22:22;102946.63;;;6.54;42.55
48053;BME280;33824;51.600;5.718;2023-02-28T11:24:51;102947.97;;;6.33;41.05
48053;BME280;33824;51.600;5.718;2023-02-28T11:27:51;102933.09;;;6.16;40.18
48053;BME280;33824;51.600;5.718;2023-02-28T11:30:31;102933.81;;;6.20;42.04
48053;BME280;33824;51.600;5.718;2023-02-28T11:32:59;102947.09;;;6.33;43.07
48053;BME280;33824;51.600;5.718;2023-02-28T11:35:39;102921.66;;;6.30;40.35
48053;BME280;33824;51.600;5.718;2023-02-28T11:38:09;102945.41;;;6.17;40.67
48053;BME280;33824;51.600;5.718;2023-02-28T11:40:56;102939.84;;;6.22;40.33
48053;BME280;33824;51.600;5.718;2023-02-28T11:46:30;102915.91;;;6.23;41.09
48053;BME280;33824;51.600;5.718;2023-02-28T11:49:21;102923.75;;;6.25;41.25
48053;BME280;33824;51.600;5.718;2023-02-28T11:52:00;102925.53;;;6.53;42.14
48053;BME280;33824;51.600;5.718;2023-02-28T11:54:41;102929.50;;;6.46;40.13
48053;BME280;33824;51.600;5.718;2023-02-28T11:59:57;102923.59;;;6.55;41.44
48053;BME280;33824;51.600;5.718;2023-02-28T12:05:41;102923.16;;;6.48;39.62
48053;BME280;33824;51.600;5.718;2023-02-28T12:08:47;102924.69;;;6.38;39.36
48053;BME280;33824;51.600;5.718;2023-02-28T12:11:39;102909.34;;;6.43;39.27
48053;BME280;33824;51.600;5.718;2023-02-28T12:19:44;102897.59;;;6.61;40.99
48053;BME280;33824;51.600;5.718;2023-02-28T12:25:10;102887.34;;;6.69;41.22
48053;BME280;33824;51.600;5.718;2023-02-28T12:27:47;102880.22;;;6.70;42.03
48053;BME280;33824;51.600;5.718;2023-02-28T12:30:21;102885.72;;;6.67;40.93
48053;BME280;33824;51.600;5.718;2023-02-28T12:32:55;102886.88;;;6.63;39.63
48053;BME280;33824;51.600;5.718;2023-02-28T12:35:26;102876.25;;;6.77;40.51
48053;BME280;33824;51.600;5.718;2023-02-28T12:38:05;102878.34;;;6.72;40.07
48053;BME280;33824;51.600;5.718;2023-02-28T12:40:52;102877.56;;;6.97;40.33
48053;BME280;33824;51.600;5.718;2023-02-28T12:43:21;102865.78;;;7.01;40.42
48053;BME280;33824;51.600;5.718;2023-02-28T12:45:57;102877.69;;;6.95;39.97
48053;BME280;33824;51.600;5.718;2023-02-28T12:48:38;102872.03;;;6.87;38.48
48053;BME280;33824;51.600;5.718;2023-02-28T12:51:06;102869.72;;;6.95;40.73
48053;BME280;33824;51.600;5.718;2023-02-28T12:59:00;102861.84;;;6.94;39.55
48053;BME280;33824;51.600;5.718;2023-02-28T13:04:42;102852.78;;;7.10;39.23
48053;BME280;33824;51.600;5.718;2023-02-28T13:09:52;102849.84;;;7.40;40.05
48053;BME280;33824;51.600;5.718;2023-02-28T13:12:19;102843.25;;;7.46;41.43
48053;BME280;33824;51.600;5.718;2023-02-28T13:14:46;102843.78;;;7.38;39.84
48053;BME280;33824;51.600;5.718;2023-02-28T13:17:14;102839.13;;;7.54;41.00
48053;BME280;33824;51.600;5.718;2023-02-28T13:22:38;102836.38;;;7.43;37.95
48053;BME280;33824;51.600;5.718;2023-02-28T13:28:01;102824.28;;;7.52;39.55
48053;BME280;33824;51.600;5.718;2023-02-28T13:33:27;102824.38;;;7.38;39.14
48053;BME280;33824;51.600;5.718;2023-02-28T13:38:52;102821.94;;;7.22;37.50
48053;BME280;33824;51.600;5.718;2023-02-28T13:44:15;102824.22;;;7.01;37.63
48053;BME280;33824;51.600;5.718;2023-02-28T13:52:22;102814.78;;;7.10;40.19
48053;BME280;33824;51.600;5.718;2023-02-28T13:55:00;102830.63;;;7.24;40.49
48053;BME280;33824;51.600;5.718;2023-02-28T13:57:45;102827.56;;;7.55;41.06
48053;BME280;33824;51.600;5.718;2023-02-28T14:05:42;102814.03;;;6.95;41.16
48053;BME280;33824;51.600;5.718;2023-02-28T14:08:16;102813.38;;;6.92;39.63
48053;BME280;33824;51.600;5.718;2023-02-28T14:10:49;102814.59;;;7.26;41.67
48053;BME280;33824;51.600;5.718;2023-02-28T14:16:02;102804.81;;;7.13;39.14
48053;BME280;33824;51.600;5.718;2023-02-28T14:18:36;102815.47;;;7.26;40.13
48053;BME280;33824;51.600;5.718;2023-02-28T14:23:50;102798.19;;;6.94;39.94
48053;BME280;33824;51.600;5.718;2023-02-28T14:27:08;102813.34;;;7.18;38.89
48053;BME280;33824;51.600;5.718;2023-02-28T14:29:55;102810.91;;;7.41;40.63
48053;BME280;33824;51.600;5.718;2023-02-28T14:32:41;102800.59;;;7.49;40.43
48053;BME280;33824;51.600;5.718;2023-02-28T14:38:25;102803.69;;;7.30;39.88
48053;BME280;33824;51.600;5.718;2023-02-28T14:40:56;102804.41;;;7.32;39.81
48053;BME280;33824;51.600;5.718;2023-02-28T14:43:24;102809.50;;;7.35;39.30
48053;BME280;33824;51.600;5.718;2023-02-28T14:45:55;102799.53;;;7.26;40.26
48053;BME280;33824;51.600;5.718;2023-02-28T14:48:22;102796.53;;;7.05;40.24
48053;BME280;33824;51.600;5.718;2023-02-28T14:50:53;102805.47;;;7.17;41.28
48053;BME280;33824;51.600;5.718;2023-02-28T14:53:21;102794.56;;;7.34;40.72
48053;BME280;33824;51.600;5.718;2023-02-28T14:55:48;102795.72;;;7.30;41.18
48053;BME280;33824;51.600;5.718;2023-02-28T15:00:53;102787.50;;;7.08;39.93
48053;BME280;33824;51.600;5.718;2023-02-28T15:03:30;102788.53;;;6.93;40.53